Terminal Aerodrome Forecast
Issued by NWS

Home | Current Version | Previous Version | Text Only | Print | Product List | Glossary On
Versions: 1 2 3 4 5 6 7 8 9 10 11 12 13 14 15 16 17 18 19 20 21 22 23 24 25 26 27 28 29 30
336
FTUS45 KGGW 211120
TAFGDV
TAF
KGDV 211120Z 2112/2212 13007KT P6SM SCT200
     FM220400 18007KT P6SM BKN130
     FM220700 22006KT P6SM BKN120
     FM220900 27006KT P6SM BKN100=

USA.gov is the U.S. government's official web portal to all federal, state and local government web resources and services.